createdAt,value
2023-02-01T00:02:59.335Z,6.40
2023-02-01T00:07:01.308Z,7.00
2023-02-01T00:11:05.420Z,8.00
2023-02-01T00:15:07.553Z,7.30
2023-02-01T00:19:11.844Z,7.30
2023-02-01T00:23:12.867Z,6.70
2023-02-01T00:27:15.935Z,6.80
2023-02-01T00:31:17.038Z,7.50
2023-02-01T00:35:18.240Z,7.70
2023-02-01T00:39:19.210Z,7.10
2023-02-01T00:43:20.429Z,7.40
2023-02-01T00:47:21.640Z,7.10
2023-02-01T00:51:26.438Z,7.00
2023-02-01T00:55:27.554Z,6.50
2023-02-01T00:59:28.676Z,6.90
2023-02-01T01:03:35.322Z,6.90
2023-02-01T01:07:36.482Z,7.00
2023-02-01T01:11:38.929Z,7.40
2023-02-01T01:15:40.744Z,6.90
2023-02-01T01:19:41.861Z,6.30
2023-02-01T01:23:43.840Z,6.30
2023-02-01T01:27:44.804Z,6.70
2023-02-01T01:31:45.967Z,7.60
2023-02-01T01:35:46.924Z,6.90
2023-02-01T01:39:48.771Z,6.60
2023-02-01T01:43:56.872Z,6.60
2023-02-01T01:48:22.788Z,5.90
2023-02-01T01:52:24.299Z,6.50
2023-02-01T01:56:26.358Z,6.30
2023-02-01T02:00:27.655Z,6.60
2023-02-01T02:04:29.071Z,6.40
2023-02-01T02:08:30.584Z,6.20
2023-02-01T02:12:33.071Z,6.30
2023-02-01T02:16:49.675Z,5.90
2023-02-01T02:21:00.308Z,5.90
2023-02-01T02:25:36.660Z,5.70
2023-02-01T02:30:10.934Z,5.80
2023-02-01T02:34:27.542Z,5.90
2023-02-01T02:38:44.445Z,5.90
2023-02-01T02:43:16.157Z,6.10
2023-02-01T02:47:24.226Z,6.30
2023-02-01T02:51:53.106Z,6.50
2023-02-01T02:56:13.568Z,6.20
2023-02-01T03:00:38.872Z,5.60
2023-02-01T03:04:40.897Z,6.40
2023-02-01T03:08:43.981Z,6.20
2023-02-01T03:12:57.452Z,5.80
2023-02-01T03:17:02.187Z,6.20
2023-02-01T03:21:06.973Z,5.70
2023-02-01T03:25:14.839Z,6.00
2023-02-01T03:29:28.596Z,5.90
2023-02-01T03:33:30.888Z,5.90
2023-02-01T03:37:31.822Z,6.30
2023-02-01T03:41:51.735Z,6.80
2023-02-01T03:45:56.547Z,6.50
2023-02-01T03:50:01.278Z,6.10
2023-02-01T03:54:05.583Z,6.20
2023-02-01T03:58:19.104Z,5.80
2023-02-01T04:02:22.430Z,6.00
2023-02-01T04:06:24.090Z,6.10
2023-02-01T04:10:25.814Z,6.40
2023-02-01T04:14:27.027Z,6.30
2023-02-01T04:18:28.580Z,6.00
2023-02-01T04:22:29.865Z,6.00
2023-02-01T04:26:31.023Z,5.90
2023-02-01T04:30:31.914Z,6.20
2023-02-01T04:34:33.258Z,6.00
2023-02-01T04:38:34.387Z,6.10
2023-02-01T04:42:35.465Z,6.60
2023-02-01T04:46:36.425Z,6.30
2023-02-01T04:50:37.361Z,6.10
2023-02-01T04:54:38.283Z,6.10
2023-02-01T04:58:39.263Z,6.20
2023-02-01T05:02:40.454Z,6.60
2023-02-01T05:06:41.452Z,6.10
2023-02-01T05:10:42.366Z,6.10
2023-02-01T05:14:43.447Z,6.30
2023-02-01T05:18:44.695Z,6.00
2023-02-01T05:22:45.695Z,6.60
2023-02-01T05:26:48.517Z,6.20
2023-02-01T05:30:49.633Z,5.70
2023-02-01T05:34:50.781Z,5.80
2023-02-01T05:38:52.057Z,5.60
2023-02-01T05:42:53.129Z,5.60
2023-02-01T05:46:54.078Z,5.70
2023-02-01T05:50:55.150Z,5.80
2023-02-01T05:54:56.217Z,5.40
2023-02-01T05:58:57.662Z,5.10
2023-02-01T06:02:58.758Z,5.70
2023-02-01T06:06:59.865Z,5.90
2023-02-01T06:11:05.474Z,5.60
2023-02-01T06:15:07.305Z,5.40
2023-02-01T06:19:09.208Z,5.90
2023-02-01T06:23:10.163Z,5.20
2023-02-01T06:27:11.336Z,5.10
2023-02-01T06:31:12.890Z,5.60
2023-02-01T06:35:17.084Z,5.50
2023-02-01T06:39:18.430Z,5.30
2023-02-01T06:43:19.393Z,5.60
2023-02-01T06:47:20.520Z,5.30
2023-02-01T06:51:24.334Z,4.80
2023-02-01T06:55:25.732Z,5.10
2023-02-01T06:59:26.878Z,4.80
2023-02-01T07:03:28.136Z,5.20
2023-02-01T07:07:29.121Z,5.00
2023-02-01T07:11:31.162Z,4.60
2023-02-01T07:15:32.387Z,5.10
2023-02-01T07:19:33.620Z,5.60
2023-02-01T07:23:34.960Z,5.40
2023-02-01T07:27:35.943Z,5.70
2023-02-01T07:31:37.055Z,5.80
2023-02-01T07:35:38.020Z,6.20
2023-02-01T07:39:39.243Z,6.30
2023-02-01T07:43:40.223Z,5.90
2023-02-01T07:47:41.568Z,6.50
2023-02-01T07:51:45.896Z,5.60
2023-02-01T07:55:48.263Z,5.60
2023-02-01T08:00:07.736Z,5.50
2023-02-01T08:04:12.940Z,5.40
2023-02-01T08:08:14.191Z,5.50
2023-02-01T08:12:15.391Z,6.10
2023-02-01T08:16:18.559Z,6.00
2023-02-01T08:20:22.290Z,6.10
2023-02-01T08:24:23.634Z,6.20
2023-02-01T08:28:24.721Z,6.10
2023-02-01T08:32:26.897Z,6.10
2023-02-01T08:36:30.915Z,5.50
2023-02-01T08:40:32.155Z,5.80
2023-02-01T08:44:33.549Z,5.90
2023-02-01T08:48:35.275Z,6.00
2023-02-01T08:52:38.211Z,5.60
2023-02-01T08:56:39.543Z,5.60
2023-02-01T09:00:41.321Z,6.10
2023-02-01T09:04:42.908Z,5.90
2023-02-01T09:08:45.066Z,5.90
2023-02-01T09:12:46.065Z,6.30
2023-02-01T09:16:47.218Z,6.20
2023-02-01T09:20:48.456Z,5.90
2023-02-01T09:24:49.692Z,5.40
2023-02-01T09:28:50.814Z,5.40
2023-02-01T09:32:51.775Z,5.50
2023-02-01T09:36:52.906Z,5.90
2023-02-01T09:40:55.603Z,5.80
2023-02-01T09:45:26.012Z,6.10
2023-02-01T09:49:30.967Z,6.20
2023-02-01T09:53:44.350Z,5.90
2023-02-01T09:57:52.126Z,6.00
2023-02-01T10:01:53.593Z,5.80
2023-02-01T10:06:14.841Z,5.70
2023-02-01T10:10:19.898Z,6.30
2023-02-01T10:14:43.134Z,6.50
2023-02-01T10:18:59.344Z,6.40
2023-02-01T10:23:31.524Z,6.30
2023-02-01T10:27:25.195Z,6.70
2023-02-01T10:31:32.971Z,6.40
2023-02-01T10:35:36.873Z,6.40
2023-02-01T10:39:38.129Z,6.20
2023-02-01T10:43:39.690Z,5.90
2023-02-01T10:47:42.629Z,6.10
2023-02-01T10:51:47.389Z,6.00
2023-02-01T10:55:50.469Z,5.50
2023-02-01T10:59:52.472Z,6.10
2023-02-01T11:03:57.067Z,6.00
2023-02-01T11:08:00.522Z,6.40
2023-02-01T11:12:01.628Z,6.50
2023-02-01T11:16:05.092Z,6.10
2023-02-01T11:20:15.952Z,6.10
2023-02-01T11:24:20.958Z,6.20
2023-02-01T11:28:25.899Z,5.70
2023-02-01T11:32:27.752Z,6.60
2023-02-01T11:36:31.994Z,6.30
2023-02-01T11:40:37.335Z,6.50
2023-02-01T11:44:40.804Z,6.80
2023-02-01T11:48:42.125Z,6.20
2023-02-01T11:52:59.231Z,6.60
2023-02-01T11:57:06.903Z,6.50
2023-02-01T12:01:35.859Z,7.20
2023-02-01T12:05:55.724Z,7.30
2023-02-01T12:10:12.214Z,7.10
2023-02-01T12:14:44.486Z,6.60
2023-02-01T12:18:49.395Z,6.80
2023-02-01T12:23:00.260Z,7.10
2023-02-01T12:27:21.269Z,6.90
2023-02-01T12:31:45.148Z,7.20
2023-02-01T12:35:56.935Z,6.50
2023-02-01T12:40:16.651Z,6.60
2023-02-01T12:44:24.543Z,6.30
2023-02-01T12:49:00.858Z,5.90
2023-02-01T12:53:11.706Z,6.40
2023-02-01T12:57:16.703Z,6.60
2023-02-01T13:01:28.982Z,6.70
2023-02-01T13:05:33.699Z,6.60
2023-02-01T13:09:53.033Z,6.60
2023-02-01T13:14:06.705Z,6.50
2023-02-01T13:18:11.775Z,6.30
2023-02-01T13:22:37.962Z,6.40
2023-02-01T13:26:39.109Z,6.60
2023-02-01T13:31:06.853Z,6.20
2023-02-01T13:35:28.125Z,6.70
2023-02-01T13:39:50.528Z,6.60
2023-02-01T13:43:57.347Z,6.60
2023-02-01T13:48:02.355Z,6.30
2023-02-01T13:52:04.501Z,6.10
2023-02-01T13:56:15.578Z,6.50
2023-02-01T14:00:36.052Z,6.60
2023-02-01T14:04:49.352Z,6.20
2023-02-01T14:09:14.917Z,6.60
2023-02-01T14:13:32.500Z,6.80
2023-02-01T14:17:35.257Z,7.00
2023-02-01T14:21:48.626Z,7.10
2023-02-01T14:25:53.386Z,6.90
2023-02-01T14:29:58.544Z,7.20
2023-02-01T14:34:03.020Z,6.90
2023-02-01T14:38:04.434Z,6.70
2023-02-01T14:42:18.691Z,7.20
2023-02-01T14:46:20.479Z,7.30
2023-02-01T14:50:37.962Z,6.90
2023-02-01T14:54:40.309Z,7.00
2023-02-01T14:58:47.869Z,6.80
2023-02-01T15:02:50.297Z,6.30
2023-02-01T15:06:57.693Z,6.00
2023-02-01T15:11:02.367Z,5.70
2023-02-01T15:15:17.390Z,5.70
2023-02-01T15:19:18.392Z,5.80
2023-02-01T15:23:19.480Z,5.80
2023-02-01T15:27:21.143Z,5.50
2023-02-01T15:31:34.145Z,5.20
2023-02-01T15:35:43.842Z,5.90
2023-02-01T15:40:08.477Z,5.60
2023-02-01T15:44:23.734Z,5.60
2023-02-01T15:48:27.048Z,5.50
2023-02-01T15:52:37.299Z,5.30
2023-02-01T15:56:41.941Z,5.50
2023-02-01T16:00:46.722Z,5.50
2023-02-01T16:04:49.970Z,5.30
2023-02-01T16:09:04.142Z,5.20
2023-02-01T16:13:05.566Z,5.50
2023-02-01T16:17:09.157Z,5.70
2023-02-01T16:21:12.178Z,5.60
2023-02-01T16:25:13.467Z,5.50
2023-02-01T16:29:17.403Z,5.40
2023-02-01T16:33:22.315Z,5.70
2023-02-01T16:37:25.671Z,5.70
2023-02-01T16:41:28.418Z,5.90
2023-02-01T16:45:30.480Z,5.70
2023-02-01T16:49:32.491Z,6.00
2023-02-01T16:53:41.752Z,6.30
2023-02-01T16:57:36.610Z,6.30
2023-02-01T17:01:38.246Z,6.30
2023-02-01T17:05:39.527Z,6.00
2023-02-01T17:09:40.770Z,6.10
2023-02-01T17:13:42.371Z,6.00
2023-02-01T17:17:43.889Z,5.60
2023-02-01T17:21:49.746Z,5.80
2023-02-01T17:25:50.950Z,6.20
2023-02-01T17:29:54.073Z,5.70
2023-02-01T17:33:55.237Z,5.50
2023-02-01T17:37:56.435Z,5.40
2023-02-01T17:41:57.715Z,5.40
2023-02-01T17:46:03.475Z,5.70
2023-02-01T17:50:05.120Z,5.40
2023-02-01T17:54:08.161Z,5.10
2023-02-01T17:58:12.258Z,5.00
2023-02-01T18:02:19.206Z,5.30
2023-02-01T18:06:26.386Z,5.00
2023-02-01T18:10:27.382Z,5.10
2023-02-01T18:14:28.389Z,5.10
2023-02-01T18:18:31.734Z,4.90
2023-02-01T18:22:33.074Z,4.70
2023-02-01T18:26:34.252Z,4.80
2023-02-01T18:30:35.565Z,5.10
2023-02-01T18:34:36.666Z,4.50
2023-02-01T18:38:37.911Z,5.00
2023-02-01T18:42:39.055Z,5.50
2023-02-01T18:46:40.187Z,5.20
2023-02-01T18:50:43.674Z,5.20
2023-02-01T18:54:58.860Z,5.20
2023-02-01T18:58:48.226Z,4.80
2023-02-01T19:02:49.614Z,5.00
2023-02-01T19:06:50.701Z,4.90
2023-02-01T19:10:52.113Z,4.80
2023-02-01T19:14:53.327Z,5.10
2023-02-01T19:18:54.362Z,5.40
2023-02-01T19:22:55.729Z,5.70
2023-02-01T19:26:56.661Z,5.90
2023-02-01T19:31:03.489Z,5.80
2023-02-01T19:35:05.727Z,5.30
2023-02-01T19:39:07.229Z,5.10
2023-02-01T19:43:08.433Z,5.70
2023-02-01T19:47:10.271Z,5.20
2023-02-01T19:51:12.120Z,5.70
2023-02-01T19:55:13.645Z,5.60
2023-02-01T19:59:15.127Z,5.20
2023-02-01T20:03:15.377Z,5.60
2023-02-01T20:07:17.015Z,5.50
2023-02-01T20:11:18.388Z,5.40
2023-02-01T20:15:21.578Z,5.60
2023-02-01T20:19:22.982Z,5.50
2023-02-01T20:23:25.447Z,5.40
2023-02-01T20:27:27.554Z,5.80
2023-02-01T20:31:29.142Z,6.00
2023-02-01T20:35:30.335Z,6.40
2023-02-01T20:39:31.394Z,5.70
2023-02-01T20:43:33.802Z,6.20
2023-02-01T20:47:35.481Z,6.00
2023-02-01T20:51:36.555Z,5.50
2023-02-01T20:55:37.666Z,6.10
2023-02-01T20:59:41.818Z,6.10
2023-02-01T21:03:42.931Z,5.60
2023-02-01T21:07:44.434Z,5.40
2023-02-01T21:11:45.947Z,6.00
2023-02-01T21:15:46.990Z,5.70
2023-02-01T21:19:52.115Z,5.50
2023-02-01T21:23:56.910Z,5.50
2023-02-01T21:27:58.241Z,5.40
2023-02-01T21:31:59.573Z,6.00
2023-02-01T21:36:00.665Z,5.60
2023-02-01T21:40:02.023Z,5.60
2023-02-01T21:44:03.023Z,5.80
2023-02-01T21:48:07.141Z,6.00
2023-02-01T21:52:08.169Z,5.70
2023-02-01T21:56:09.269Z,5.50
2023-02-01T22:00:12.908Z,5.60
2023-02-01T22:04:14.440Z,5.80
2023-02-01T22:08:15.522Z,5.50
2023-02-01T22:12:17.371Z,6.00
2023-02-01T22:16:20.620Z,6.60
2023-02-01T22:20:21.664Z,6.10
2023-02-01T22:24:22.844Z,5.90
2023-02-01T22:28:31.050Z,6.20
2023-02-01T22:32:27.255Z,5.90
2023-02-01T22:36:28.212Z,5.70
2023-02-01T22:40:29.158Z,6.30
2023-02-01T22:44:30.214Z,5.70
2023-02-01T22:48:33.433Z,5.90
2023-02-01T22:52:34.511Z,6.50
2023-02-01T22:56:36.660Z,6.20
2023-02-01T23:00:37.848Z,6.40
2023-02-01T23:04:38.929Z,6.60
2023-02-01T23:08:39.990Z,6.40
2023-02-01T23:12:41.008Z,6.40
2023-02-01T23:16:46.682Z,6.80
2023-02-01T23:20:47.591Z,6.10
2023-02-01T23:24:48.607Z,6.00
2023-02-01T23:28:52.766Z,6.50
2023-02-01T23:32:54.003Z,6.40
2023-02-01T23:36:55.923Z,6.20
2023-02-01T23:40:58.987Z,6.20
2023-02-01T23:45:00.186Z,6.60
2023-02-01T23:49:02.509Z,6.20
2023-02-01T23:53:03.482Z,6.30
2023-02-01T23:57:04.592Z,6.70
